Time;durP1;ratioP1;P1;durP2;ratioP2;P2;SDS_P1;SDS_P2;PMS_P1;PMS_P2;Temp;Humidity;BMP_temperature;BMP_pressure;BME280_temperature;BME280_humidity;BME280_pressure;Samples;Min_cycle;Max_cycle;Signal;HPM_P1;HPM_P2
2023/03/28 00:02:25;;;;;;;0.80;0.80;;;;;;;;;;5115596;28;20216;-83
2023/03/28 00:04:54;;;;;;;0.80;0.80;;;;;;;;;;5115525;28;20200;-83
2023/03/28 00:07:22;;;;;;;0.80;0.80;;;;;;;;;;5115260;28;20200;-83
2023/03/28 00:09:52;;;;;;;0.80;0.80;;;;;;;;;;5115244;28;20261;-80
2023/03/28 00:12:21;;;;;;;0.80;0.80;;;;;;;;;;5115081;28;20272;-80
2023/03/28 00:14:49;;;;;;;0.80;0.80;;;;;;;;;;5114777;28;20193;-80
2023/03/28 00:17:18;;;;;;;0.80;0.80;;;;;;;;;;5114521;28;20324;-80
2023/03/28 00:19:48;;;;;;;0.80;0.80;;;;;;;;;;5114875;28;20245;-80
2023/03/28 00:22:17;;;;;;;0.80;0.80;;;;;;;;;;5114353;28;20254;-80
2023/03/28 00:24:46;;;;;;;0.80;0.80;;;;;;;;;;5114842;28;20196;-80
2023/03/28 00:27:16;;;;;;;0.80;0.80;;;;;;;;;;5114676;28;20196;-80
2023/03/28 00:29:45;;;;;;;0.90;0.90;;;;;;;;;;5114710;28;20202;-80
2023/03/28 00:32:13;;;;;;;0.80;0.80;;;;;;;;;;5114679;28;20228;-80
2023/03/28 00:34:41;;;;;;;0.90;0.90;;;;;;;;;;5114346;28;20206;-80
2023/03/28 00:37:16;;;;;;;0.80;0.80;;;;;;;;;;5114391;28;20295;-80
2023/03/28 00:39:48;;;;;;;0.90;0.90;;;;;;;;;;5114798;27;20196;-80
2023/03/28 00:42:19;;;;;;;0.80;0.80;;;;;;;;;;5114488;28;20223;-80
2023/03/28 00:44:48;;;;;;;0.90;0.90;;;;;;;;;;5114475;28;20409;-80
2023/03/28 00:47:24;;;;;;;3.33;1.00;;;;;;;;;;5114267;28;20205;-80
2023/03/28 00:49:53;;;;;;;18.33;1.67;;;;;;;;;;5114390;28;20196;-80
2023/03/28 00:52:24;;;;;;;0.90;0.90;;;;;;;;;;5114413;28;20220;-80
2023/03/28 00:54:56;;;;;;;0.80;0.80;;;;;;;;;;5114540;28;20224;-80
2023/03/28 00:57:26;;;;;;;0.90;0.90;;;;;;;;;;5114303;28;20206;-80
2023/03/28 00:59:55;;;;;;;0.80;0.80;;;;;;;;;;5113746;28;20220;-80
2023/03/28 01:02:24;;;;;;;0.80;0.80;;;;;;;;;;5113964;28;20208;-80
2023/03/28 01:04:56;;;;;;;0.90;0.90;;;;;;;;;;5114061;28;20205;-80
2023/03/28 01:07:25;;;;;;;0.83;0.83;;;;;;;;;;5113697;28;20200;-80
2023/03/28 01:09:54;;;;;;;0.90;0.90;;;;;;;;;;5113971;28;20200;-80
2023/03/28 01:12:23;;;;;;;0.80;0.80;;;;;;;;;;5113570;28;20204;-80
2023/03/28 01:14:52;;;;;;;0.80;0.80;;;;;;;;;;5114044;28;20273;-80
2023/03/28 01:17:21;;;;;;;0.90;0.90;;;;;;;;;;5113239;28;20232;-80
2023/03/28 01:19:57;;;;;;;0.90;0.90;;;;;;;;;;5113744;28;20196;-80
2023/03/28 01:22:43;;;;;;;0.80;0.80;;;;;;;;;;5113496;28;20212;-80
2023/03/28 01:25:37;;;;;;;0.80;0.80;;;;;;;;;;5113719;28;20200;-80
2023/03/28 01:31:42;;;;;;;2.23;2.13;;;;;;;;;;5113262;28;20375;-80
2023/03/28 01:34:19;;;;;;;1.10;1.10;;;;;;;;;;5080067;27;20228;-80
2023/03/28 01:37:04;;;;;;;0.90;0.90;;;;;;;;;;5113492;28;20295;-83
2023/03/28 01:39:41;;;;;;;0.90;0.90;;;;;;;;;;5113923;28;20196;-83
2023/03/28 01:42:15;;;;;;;0.90;0.90;;;;;;;;;;5113510;28;20227;-82
2023/03/28 01:44:47;;;;;;;1.30;1.30;;;;;;;;;;5113525;28;20228;-83
2023/03/28 01:47:18;;;;;;;0.87;0.87;;;;;;;;;;5113773;28;20208;-83
2023/03/28 01:49:48;;;;;;;0.90;0.90;;;;;;;;;;5113329;28;20275;-83
2023/03/28 01:52:21;;;;;;;0.90;0.90;;;;;;;;;;5113819;28;20427;-83
2023/03/28 01:54:53;;;;;;;0.80;0.80;;;;;;;;;;5113367;28;20200;-82
2023/03/28 01:57:24;;;;;;;0.80;0.80;;;;;;;;;;5113275;28;20229;-83
2023/03/28 01:59:55;;;;;;;0.90;0.90;;;;;;;;;;5113282;28;20196;-83
2023/03/28 02:02:27;;;;;;;0.90;0.90;;;;;;;;;;5113016;28;20307;-83
2023/03/28 02:04:56;;;;;;;0.90;0.90;;;;;;;;;;5112913;28;20204;-80
2023/03/28 02:07:27;;;;;;;0.90;0.90;;;;;;;;;;5112847;28;20199;-80
2023/03/28 02:09:56;;;;;;;0.80;0.80;;;;;;;;;;5113021;28;20287;-80
2023/03/28 02:12:27;;;;;;;0.87;0.87;;;;;;;;;;5112704;28;20197;-80
2023/03/28 02:14:56;;;;;;;0.80;0.80;;;;;;;;;;5112974;28;20196;-80
2023/03/28 02:17:27;;;;;;;0.90;0.90;;;;;;;;;;5112287;28;20265;-80
2023/03/28 02:19:58;;;;;;;0.80;0.80;;;;;;;;;;5112876;28;20208;-80
2023/03/28 02:22:32;;;;;;;0.90;0.90;;;;;;;;;;5112945;28;20218;-80
2023/03/28 02:25:01;;;;;;;0.80;0.80;;;;;;;;;;5112877;28;20222;-80
2023/03/28 02:27:30;;;;;;;0.90;0.90;;;;;;;;;;5112597;28;20200;-80
2023/03/28 02:29:59;;;;;;;0.90;0.90;;;;;;;;;;5112702;28;20200;-80
2023/03/28 02:32:27;;;;;;;0.80;0.80;;;;;;;;;;5112948;28;20192;-80
2023/03/28 02:34:56;;;;;;;0.87;0.87;;;;;;;;;;5112531;28;20230;-80
2023/03/28 02:37:31;;;;;;;0.90;0.90;;;;;;;;;;5112700;28;20192;-80
2023/03/28 02:40:07;;;;;;;0.90;0.90;;;;;;;;;;5112794;28;20205;-80
2023/03/28 02:42:46;;;;;;;0.90;0.90;;;;;;;;;;5112429;28;20319;-80
2023/03/28 02:45:27;;;;;;;1.00;1.00;;;;;;;;;;5112664;28;20199;-80
2023/03/28 02:48:00;;;;;;;0.90;0.90;;;;;;;;;;5112343;28;20291;-80
2023/03/28 02:50:35;;;;;;;0.90;0.90;;;;;;;;;;5112600;28;20196;-80
2023/03/28 02:53:11;;;;;;;0.83;0.83;;;;;;;;;;5112701;28;20245;-80
2023/03/28 02:55:43;;;;;;;0.90;0.90;;;;;;;;;;5112663;28;20196;-80
2023/03/28 02:58:16;;;;;;;0.90;0.90;;;;;;;;;;5112275;28;20232;-80
2023/03/28 03:00:44;;;;;;;0.90;0.90;;;;;;;;;;5112654;28;20233;-80
2023/03/28 03:03:14;;;;;;;0.90;0.90;;;;;;;;;;5112327;28;20234;-80
2023/03/28 03:05:43;;;;;;;0.80;0.80;;;;;;;;;;5112037;28;20231;-80
2023/03/28 03:08:13;;;;;;;0.90;0.90;;;;;;;;;;5112538;28;20204;-80
2023/03/28 03:10:41;;;;;;;0.80;0.80;;;;;;;;;;5112276;28;20212;-80
2023/03/28 03:13:09;;;;;;;0.97;0.97;;;;;;;;;;5112296;28;20283;-80
2023/03/28 03:15:40;;;;;;;0.90;0.90;;;;;;;;;;5112176;28;20255;-80
2023/03/28 03:18:08;;;;;;;0.80;0.80;;;;;;;;;;5112349;28;20222;-80
2023/03/28 03:20:37;;;;;;;0.80;0.80;;;;;;;;;;5112064;28;20192;-84
2023/03/28 03:23:06;;;;;;;0.90;0.90;;;;;;;;;;5112333;28;20216;-83
2023/03/28 03:25:36;;;;;;;0.90;0.90;;;;;;;;;;5116027;27;20196;-83
2023/03/28 03:28:04;;;;;;;0.80;0.80;;;;;;;;;;5115974;28;20203;-83
2023/03/28 03:30:32;;;;;;;0.90;0.90;;;;;;;;;;5116285;28;20313;-83
2023/03/28 03:33:01;;;;;;;1.70;1.63;;;;;;;;;;5116522;28;20268;-83
2023/03/28 03:35:32;;;;;;;0.90;0.90;;;;;;;;;;5115955;28;20200;-83
2023/03/28 03:38:00;;;;;;;0.90;0.90;;;;;;;;;;5116090;28;20199;-82
2023/03/28 03:40:29;;;;;;;1.10;1.10;;;;;;;;;;5116043;28;20227;-83
2023/03/28 03:42:59;;;;;;;3.23;1.73;;;;;;;;;;5115730;28;20217;-83
2023/03/28 03:45:27;;;;;;;3.07;1.87;;;;;;;;;;5115837;28;20227;-83
2023/03/28 03:47:55;;;;;;;1.03;1.03;;;;;;;;;;5115409;28;20276;-80
2023/03/28 03:50:24;;;;;;;2.90;1.87;;;;;;;;;;5115646;28;20199;-80
2023/03/28 03:52:52;;;;;;;0.90;0.90;;;;;;;;;;5115555;28;20224;-80
2023/03/28 03:55:20;;;;;;;1.60;1.60;;;;;;;;;;5115154;28;20260;-80
2023/03/28 03:57:49;;;;;;;6.63;2.40;;;;;;;;;;5115529;28;20222;-80
2023/03/28 04:00:19;;;;;;;0.93;0.93;;;;;;;;;;5115411;28;20290;-80
2023/03/28 04:02:47;;;;;;;2.13;1.40;;;;;;;;;;5115162;28;20216;-80
2023/03/28 04:05:16;;;;;;;1.10;1.10;;;;;;;;;;5115295;28;20228;-80
2023/03/28 04:07:45;;;;;;;1.00;1.00;;;;;;;;;;5115289;28;20224;-80
2023/03/28 04:10:13;;;;;;;1.00;1.00;;;;;;;;;;5114673;28;20231;-80
2023/03/28 04:12:42;;;;;;;1.00;1.00;;;;;;;;;;5115467;28;20235;-80
2023/03/28 04:15:10;;;;;;;1.37;1.37;;;;;;;;;;5115063;28;20228;-80
2023/03/28 04:17:42;;;;;;;1.00;1.00;;;;;;;;;;5116549;27;20236;-80
2023/03/28 04:20:12;;;;;;;1.40;1.40;;;;;;;;;;5115277;28;20204;-80
2023/03/28 04:22:41;;;;;;;7.17;2.43;;;;;;;;;;5115170;28;20205;-80
2023/03/28 04:25:13;;;;;;;1.00;1.00;;;;;;;;;;5114630;28;20203;-80
2023/03/28 04:27:45;;;;;;;3.20;2.10;;;;;;;;;;5114700;27;20291;-80
2023/03/28 04:30:16;;;;;;;1.57;1.47;;;;;;;;;;5115102;28;20196;-80
2023/03/28 04:32:49;;;;;;;1.00;1.00;;;;;;;;;;5115051;28;20276;-80
2023/03/28 04:35:17;;;;;;;1.00;1.00;;;;;;;;;;5114670;28;20192;-80
2023/03/28 04:37:46;;;;;;;1.00;1.00;;;;;;;;;;5114453;28;20204;-80
2023/03/28 04:40:16;;;;;;;1.00;1.00;;;;;;;;;;5114277;28;20237;-80
2023/03/28 04:42:45;;;;;;;1.33;1.33;;;;;;;;;;5114345;28;20223;-80
2023/03/28 04:45:14;;;;;;;2.87;2.33;;;;;;;;;;5114627;28;20253;-83
2023/03/28 04:47:46;;;;;;;2.27;2.10;;;;;;;;;;5116224;28;20221;-83
2023/03/28 04:50:15;;;;;;;1.00;1.00;;;;;;;;;;5116048;28;20293;-83
2023/03/28 04:52:43;;;;;;;1.30;1.20;;;;;;;;;;5116243;28;20192;-82
2023/03/28 04:55:12;;;;;;;1.00;1.00;;;;;;;;;;5116481;28;20230;-83
2023/03/28 04:57:40;;;;;;;0.90;0.90;;;;;;;;;;5116253;28;20187;-83
2023/03/28 05:00:11;;;;;;;2.47;2.20;;;;;;;;;;5116094;28;20204;-83
2023/03/28 05:02:39;;;;;;;1.00;1.00;;;;;;;;;;5116073;28;20269;-83
2023/03/28 05:05:10;;;;;;;1.33;1.33;;;;;;;;;;5116286;28;20215;-83
2023/03/28 05:07:38;;;;;;;2.83;1.27;;;;;;;;;;5115724;28;20291;-82
2023/03/28 05:10:07;;;;;;;1.77;1.67;;;;;;;;;;5116047;28;20200;-83
2023/03/28 05:12:35;;;;;;;2.17;1.50;;;;;;;;;;5115712;28;20203;-83
2023/03/28 05:15:04;;;;;;;7.63;2.60;;;;;;;;;;5115670;28;20195;-83
2023/03/28 05:17:32;;;;;;;3.73;2.20;;;;;;;;;;5115524;28;20270;-83
2023/03/28 05:20:01;;;;;;;6.70;2.47;;;;;;;;;;5115860;28;20206;-83
2023/03/28 05:22:31;;;;;;;4.27;2.27;;;;;;;;;;5115184;28;20237;-83
2023/03/28 05:24:59;;;;;;;1.87;1.77;;;;;;;;;;5115586;28;20218;-83
2023/03/28 05:27:28;;;;;;;3.63;2.20;;;;;;;;;;5115451;28;20442;-83
2023/03/28 05:29:56;;;;;;;4.93;2.40;;;;;;;;;;5115218;28;20269;-82
2023/03/28 05:32:24;;;;;;;9.57;3.03;;;;;;;;;;5115500;28;20208;-83
2023/03/28 05:34:55;;;;;;;2.20;2.00;;;;;;;;;;5115465;28;20195;-83
2023/03/28 05:37:25;;;;;;;0.90;0.90;;;;;;;;;;5115533;28;20277;-83
2023/03/28 05:39:57;;;;;;;2.93;1.90;;;;;;;;;;5114940;28;20301;-83
2023/03/28 05:42:25;;;;;;;5.80;2.20;;;;;;;;;;5115056;28;20291;-83
2023/03/28 05:44:54;;;;;;;2.70;2.47;;;;;;;;;;5114959;28;20312;-83
2023/03/28 05:47:23;;;;;;;2.60;2.37;;;;;;;;;;5114815;28;20191;-82
2023/03/28 05:49:53;;;;;;;1.30;1.20;;;;;;;;;;5115032;28;20202;-82
2023/03/28 05:52:22;;;;;;;4.53;2.67;;;;;;;;;;5114099;28;20204;-83
2023/03/28 05:54:50;;;;;;;3.23;2.63;;;;;;;;;;5114285;28;20233;-83
2023/03/28 05:57:21;;;;;;;4.73;3.37;;;;;;;;;;5114479;28;20196;-82
2023/03/28 05:59:49;;;;;;;8.23;4.27;;;;;;;;;;5113804;28;20203;-83
2023/03/28 06:02:19;;;;;;;1.53;1.30;;;;;;;;;;5112539;28;20197;-83
2023/03/28 06:04:47;;;;;;;4.60;2.53;;;;;;;;;;5112800;28;20251;-83
2023/03/28 06:07:16;;;;;;;3.00;2.43;;;;;;;;;;5112338;28;20214;-84
2023/03/28 06:09:52;;;;;;;1.80;1.63;;;;;;;;;;5112683;28;20292;-83
2023/03/28 06:12:22;;;;;;;5.53;3.17;;;;;;;;;;5114526;28;20236;-83
2023/03/28 06:14:50;;;;;;;4.00;3.07;;;;;;;;;;5114273;28;20294;-83
2023/03/28 06:17:19;;;;;;;5.87;3.20;;;;;;;;;;5114092;28;20259;-84
2023/03/28 06:19:47;;;;;;;3.80;2.37;;;;;;;;;;5113073;28;20247;-83
2023/03/28 06:22:16;;;;;;;2.30;2.10;;;;;;;;;;5112980;28;20481;-84
2023/03/28 06:24:44;;;;;;;1.00;1.00;;;;;;;;;;5112830;28;20269;-83
2023/03/28 06:27:13;;;;;;;2.20;1.73;;;;;;;;;;5112803;28;20198;-83
2023/03/28 06:29:42;;;;;;;0.90;0.90;;;;;;;;;;5112614;28;20203;-83
2023/03/28 06:32:12;;;;;;;5.43;2.60;;;;;;;;;;5113104;28;20304;-84
2023/03/28 06:34:42;;;;;;;3.93;2.63;;;;;;;;;;5112419;28;20180;-83
2023/03/28 06:37:10;;;;;;;0.93;0.93;;;;;;;;;;5112510;28;20203;-83
2023/03/28 06:39:40;;;;;;;8.37;2.40;;;;;;;;;;5112535;28;20214;-84
2023/03/28 06:42:08;;;;;;;4.93;2.97;;;;;;;;;;5112448;28;20195;-84
2023/03/28 06:44:36;;;;;;;3.70;2.90;;;;;;;;;;5112535;28;20212;-83
2023/03/28 06:47:06;;;;;;;10.50;3.27;;;;;;;;;;5112876;28;20200;-83
2023/03/28 06:49:35;;;;;;;4.23;2.93;;;;;;;;;;5112703;28;20196;-83
2023/03/28 06:52:03;;;;;;;6.33;2.87;;;;;;;;;;5113872;28;20203;-83
2023/03/28 06:54:34;;;;;;;5.23;2.50;;;;;;;;;;5113924;28;20192;-83
2023/03/28 06:57:05;;;;;;;3.23;2.93;;;;;;;;;;5116379;28;20237;-83
2023/03/28 06:59:33;;;;;;;6.43;2.80;;;;;;;;;;5116339;28;20203;-83
2023/03/28 07:02:01;;;;;;;9.77;3.27;;;;;;;;;;5117421;28;20260;-83
2023/03/28 07:04:33;;;;;;;3.30;3.00;;;;;;;;;;5117121;28;20204;-85
2023/03/28 07:07:02;;;;;;;2.63;2.23;;;;;;;;;;5116827;28;20231;-84
2023/03/28 07:09:31;;;;;;;3.27;2.23;;;;;;;;;;5106358;27;20212;-85
2023/03/28 07:11:59;;;;;;;3.10;2.30;;;;;;;;;;5107036;28;20201;-83
2023/03/28 07:14:28;;;;;;;7.37;2.57;;;;;;;;;;5103019;27;20212;-83
2023/03/28 07:16:56;;;;;;;4.27;2.60;;;;;;;;;;5092867;28;20426;-82
2023/03/28 07:19:25;;;;;;;6.87;3.00;;;;;;;;;;5099018;28;20228;-88
2023/03/28 07:21:55;;;;;;;5.53;3.07;;;;;;;;;;5100971;28;20197;-82
2023/03/28 07:24:24;;;;;;;5.07;3.33;;;;;;;;;;5104420;28;20299;-83
2023/03/28 07:26:52;;;;;;;3.63;2.60;;;;;;;;;;5099651;28;20239;-83
2023/03/28 07:29:40;;;;;;;0.93;0.93;;;;;;;;;;5109108;28;20236;-84
2023/03/28 07:32:10;;;;;;;7.60;3.70;;;;;;;;;;5104507;28;20262;-85
2023/03/28 07:34:38;;;;;;;4.83;4.13;;;;;;;;;;5099151;28;20208;-84
2023/03/28 07:37:09;;;;;;;4.10;3.13;;;;;;;;;;5094855;28;20208;-86
2023/03/28 07:39:42;;;;;;;5.23;3.17;;;;;;;;;;5094410;28;20205;-83
2023/03/28 07:42:13;;;;;;;9.20;3.23;;;;;;;;;;5097525;28;20240;-81
2023/03/28 07:44:42;;;;;;;9.00;4.97;;;;;;;;;;5100645;28;20237;-85
2023/03/28 07:47:11;;;;;;;6.03;3.10;;;;;;;;;;5099137;28;20409;-85
2023/03/28 07:49:39;;;;;;;6.43;3.57;;;;;;;;;;5100118;28;20264;-83
2023/03/28 07:52:10;;;;;;;8.50;3.33;;;;;;;;;;5102035;28;20367;-83
2023/03/28 07:54:38;;;;;;;9.70;3.80;;;;;;;;;;5096741;28;20201;-85
2023/03/28 07:57:07;;;;;;;4.80;2.80;;;;;;;;;;5097153;28;20214;-85
2023/03/28 07:59:35;;;;;;;5.07;3.03;;;;;;;;;;5095625;28;20212;-86
2023/03/28 08:02:04;;;;;;;7.80;3.50;;;;;;;;;;5100097;28;20425;-87
2023/03/28 08:04:32;;;;;;;7.13;3.23;;;;;;;;;;5096988;28;20196;-83
2023/03/28 08:07:01;;;;;;;6.90;3.27;;;;;;;;;;5096352;28;20235;-84
2023/03/28 08:09:31;;;;;;;6.67;2.87;;;;;;;;;;5097488;28;20247;-84
2023/03/28 08:11:59;;;;;;;3.13;2.20;;;;;;;;;;5103216;28;20208;-85
2023/03/28 08:14:28;;;;;;;4.40;3.70;;;;;;;;;;5098167;28;20216;-86
2023/03/28 08:16:56;;;;;;;7.90;2.43;;;;;;;;;;5096852;28;20307;-84
2023/03/28 08:19:25;;;;;;;7.47;2.83;;;;;;;;;;5094874;28;20217;-83
2023/03/28 08:21:53;;;;;;;5.10;2.20;;;;;;;;;;5102183;28;20251;-86
2023/03/28 08:24:22;;;;;;;1.50;1.43;;;;;;;;;;5103230;28;20230;-84
2023/03/28 08:27:04;;;;;;;4.83;2.80;;;;;;;;;;5098856;28;20220;-84
2023/03/28 08:29:33;;;;;;;4.93;2.47;;;;;;;;;;5097925;28;20271;-82
2023/03/28 08:32:02;;;;;;;4.30;2.50;;;;;;;;;;5102567;28;20283;-83
2023/03/28 08:34:33;;;;;;;5.23;2.93;;;;;;;;;;5099625;28;20208;-83
2023/03/28 08:37:04;;;;;;;4.77;2.80;;;;;;;;;;5098413;28;20196;-82
2023/03/28 08:39:33;;;;;;;5.70;3.00;;;;;;;;;;5095694;28;20209;-79
2023/03/28 08:42:16;;;;;;;5.30;2.50;;;;;;;;;;5096932;28;20199;-84
2023/03/28 08:44:51;;;;;;;3.13;1.90;;;;;;;;;;5093418;28;20230;-81
2023/03/28 08:47:23;;;;;;;2.00;1.80;;;;;;;;;;5097495;27;20218;-84
2023/03/28 08:49:55;;;;;;;5.07;2.00;;;;;;;;;;5103031;28;20216;-85
2023/03/28 08:52:23;;;;;;;6.10;2.40;;;;;;;;;;5095865;28;20204;-86
2023/03/28 08:54:57;;;;;;;7.33;3.10;;;;;;;;;;5092927;28;20208;-86
2023/03/28 08:57:28;;;;;;;7.13;3.20;;;;;;;;;;5100107;28;20234;-85
2023/03/28 09:00:07;;;;;;;1.50;1.40;;;;;;;;;;5092415;28;20201;-82
2023/03/28 09:02:36;;;;;;;1.70;1.60;;;;;;;;;;5099850;28;20216;-85
2023/03/28 09:05:05;;;;;;;3.77;2.97;;;;;;;;;;5089866;28;20207;-85
2023/03/28 09:07:54;;;;;;;6.30;2.47;;;;;;;;;;5100088;28;20215;-84
2023/03/28 09:10:26;;;;;;;5.10;2.60;;;;;;;;;;5095121;28;20226;-83
2023/03/28 09:13:01;;;;;;;4.67;3.10;;;;;;;;;;5095345;28;20292;-85
2023/03/28 09:15:37;;;;;;;7.80;3.10;;;;;;;;;;5090490;28;20256;-86
2023/03/28 09:18:23;;;;;;;5.40;2.53;;;;;;;;;;5098969;28;20227;-86
2023/03/28 09:20:53;;;;;;;6.30;2.80;;;;;;;;;;5098052;28;20206;-85
2023/03/28 09:23:29;;;;;;;5.13;3.20;;;;;;;;;;5098344;28;20247;-86
2023/03/28 09:26:00;;;;;;;6.17;3.20;;;;;;;;;;5095147;28;20220;-87
2023/03/28 09:28:35;;;;;;;4.47;2.80;;;;;;;;;;5097860;28;20280;-87
2023/03/28 09:31:07;;;;;;;11.33;3.17;;;;;;;;;;5097231;28;20234;-87
2023/03/28 09:33:37;;;;;;;3.00;2.27;;;;;;;;;;5099932;28;20299;-88
2023/03/28 09:36:11;;;;;;;4.97;3.70;;;;;;;;;;5097703;28;20192;-87
2023/03/28 09:38:41;;;;;;;5.07;2.80;;;;;;;;;;5097341;27;20204;-85
2023/03/28 09:41:13;;;;;;;5.23;2.30;;;;;;;;;;5098504;28;20253;-87
2023/03/28 09:43:44;;;;;;;5.10;2.83;;;;;;;;;;5097726;28;20209;-84
2023/03/28 09:46:18;;;;;;;11.17;3.60;;;;;;;;;;5098709;28;20262;-86
2023/03/28 09:48:47;;;;;;;8.87;3.57;;;;;;;;;;5098980;28;20207;-88
2023/03/28 09:51:17;;;;;;;6.50;2.30;;;;;;;;;;5096587;28;20193;-85
2023/03/28 09:53:45;;;;;;;4.33;1.93;;;;;;;;;;5096953;28;20209;-83
2023/03/28 09:56:17;;;;;;;4.67;2.93;;;;;;;;;;5092800;28;20199;-88
2023/03/28 09:58:51;;;;;;;5.33;3.63;;;;;;;;;;5094674;28;20202;-88
2023/03/28 10:01:36;;;;;;;8.43;3.67;;;;;;;;;;5094568;28;20232;-86
2023/03/28 10:04:10;;;;;;;3.87;2.60;;;;;;;;;;5095909;28;20208;-85
2023/03/28 10:06:39;;;;;;;4.80;3.33;;;;;;;;;;5096092;28;20223;-85
2023/03/28 10:09:15;;;;;;;5.43;3.33;;;;;;;;;;5097905;28;20250;-83
2023/03/28 10:11:45;;;;;;;6.67;4.47;;;;;;;;;;5099340;28;20212;-85
2023/03/28 10:14:28;;;;;;;5.87;3.40;;;;;;;;;;5095956;28;20321;-84
2023/03/28 10:16:59;;;;;;;3.10;2.80;;;;;;;;;;5090112;28;20224;-83
2023/03/28 10:19:32;;;;;;;6.27;3.87;;;;;;;;;;5098863;28;20307;-84
2023/03/28 10:22:06;;;;;;;5.60;3.10;;;;;;;;;;5091931;28;20444;-83
2023/03/28 10:24:36;;;;;;;6.07;3.40;;;;;;;;;;5091892;28;20208;-82
2023/03/28 10:27:09;;;;;;;4.63;3.67;;;;;;;;;;5098829;28;20216;-82
2023/03/28 10:29:39;;;;;;;6.30;3.80;;;;;;;;;;5098147;28;20200;-86
2023/03/28 10:32:24;;;;;;;5.77;3.83;;;;;;;;;;5095218;28;20205;-81
2023/03/28 10:35:00;;;;;;;6.57;3.73;;;;;;;;;;5103081;28;20221;-84
2023/03/28 10:37:32;;;;;;;4.23;3.70;;;;;;;;;;5100574;28;20207;-84
2023/03/28 10:40:03;;;;;;;4.63;3.20;;;;;;;;;;5108514;28;20440;-84
2023/03/28 10:42:40;;;;;;;9.07;4.50;;;;;;;;;;5105513;28;20204;-85
2023/03/28 10:45:19;;;;;;;3.13;2.83;;;;;;;;;;5102133;28;20216;-83
2023/03/28 10:47:50;;;;;;;3.23;2.53;;;;;;;;;;5100331;28;20307;-85
2023/03/28 10:50:22;;;;;;;5.30;3.43;;;;;;;;;;5100038;28;20212;-84
2023/03/28 10:52:54;;;;;;;4.23;3.37;;;;;;;;;;5105803;28;20215;-86
2023/03/28 10:55:25;;;;;;;5.30;4.23;;;;;;;;;;5101205;28;20202;-88
2023/03/28 10:57:59;;;;;;;6.33;4.60;;;;;;;;;;5103907;28;20210;-87
2023/03/28 11:00:30;;;;;;;5.90;3.83;;;;;;;;;;5102808;28;20225;-89
2023/03/28 11:03:16;;;;;;;9.20;4.03;;;;;;;;;;5096376;28;20285;-81
2023/03/28 11:05:53;;;;;;;6.23;4.70;;;;;;;;;;5100654;28;20229;-82
2023/03/28 11:08:42;;;;;;;5.80;4.33;;;;;;;;;;5098249;28;20475;-87
2023/03/28 11:11:15;;;;;;;5.53;4.57;;;;;;;;;;5103569;28;20243;-87
2023/03/28 11:13:52;;;;;;;4.27;3.47;;;;;;;;;;5096864;28;20271;-88
2023/03/28 11:16:25;;;;;;;3.63;3.33;;;;;;;;;;5099895;28;20241;-88
2023/03/28 11:18:59;;;;;;;6.27;4.00;;;;;;;;;;5103222;28;20268;-87
2023/03/28 11:21:32;;;;;;;4.23;3.83;;;;;;;;;;5113704;28;20300;-88
2023/03/28 11:24:11;;;;;;;5.03;3.70;;;;;;;;;;5100685;28;20204;-87
2023/03/28 11:26:46;;;;;;;6.03;4.77;;;;;;;;;;5098908;28;20209;-85
2023/03/28 11:29:20;;;;;;;4.23;3.83;;;;;;;;;;5103029;28;20258;-85
2023/03/28 11:32:03;;;;;;;4.73;2.57;;;;;;;;;;5109225;28;20223;-87
2023/03/28 11:34:33;;;;;;;4.07;3.67;;;;;;;;;;5103896;28;20259;-88
2023/03/28 11:37:04;;;;;;;6.37;3.90;;;;;;;;;;5105539;28;20252;-86
2023/03/28 11:39:37;;;;;;;6.40;3.83;;;;;;;;;;5099806;28;20204;-86
2023/03/28 11:42:09;;;;;;;4.40;3.13;;;;;;;;;;5104642;28;20212;-86
2023/03/28 11:44:39;;;;;;;7.47;3.67;;;;;;;;;;5107670;28;20212;-86
2023/03/28 11:47:11;;;;;;;4.97;2.93;;;;;;;;;;5106633;27;20266;-86
2023/03/28 11:49:41;;;;;;;3.97;3.20;;;;;;;;;;5107281;28;20223;-89
2023/03/28 11:52:15;;;;;;;4.97;3.47;;;;;;;;;;5104975;28;20208;-84
2023/03/28 11:54:46;;;;;;;6.17;3.00;;;;;;;;;;5102392;28;20252;-86
2023/03/28 11:57:19;;;;;;;3.97;3.20;;;;;;;;;;5123502;27;20202;-83
2023/03/28 11:59:51;;;;;;;3.33;2.40;;;;;;;;;;5135390;27;20290;-84
2023/03/28 12:02:29;;;;;;;5.47;3.27;;;;;;;;;;5135614;27;20206;-82
2023/03/28 12:05:01;;;;;;;5.00;3.67;;;;;;;;;;5136029;27;20252;-83
2023/03/28 12:07:34;;;;;;;3.83;2.90;;;;;;;;;;5135677;27;20216;-84
2023/03/28 12:10:07;;;;;;;4.53;2.97;;;;;;;;;;5135710;27;20196;-84
2023/03/28 12:12:37;;;;;;;7.03;3.67;;;;;;;;;;5135893;27;20204;-84
2023/03/28 12:15:07;;;;;;;2.50;2.30;;;;;;;;;;5135657;27;20199;-84
2023/03/28 12:17:37;;;;;;;5.87;2.73;;;;;;;;;;5135038;27;20238;-85
2023/03/28 12:20:12;;;;;;;4.53;2.83;;;;;;;;;;5135209;27;20204;-84
2023/03/28 12:22:44;;;;;;;3.37;2.30;;;;;;;;;;5135373;27;20191;-84
2023/03/28 12:25:14;;;;;;;3.67;2.87;;;;;;;;;;5135450;27;20217;-84
2023/03/28 12:27:51;;;;;;;4.70;3.30;;;;;;;;;;5134660;27;20216;-84
2023/03/28 12:30:22;;;;;;;6.80;3.57;;;;;;;;;;5135567;27;20295;-84
2023/03/28 12:32:54;;;;;;;6.83;3.80;;;;;;;;;;5134577;27;20241;-84
2023/03/28 12:35:25;;;;;;;8.83;3.43;;;;;;;;;;5134987;27;20206;-84
2023/03/28 12:38:06;;;;;;;5.87;3.70;;;;;;;;;;5135084;27;20184;-85
2023/03/28 12:40:45;;;;;;;7.23;4.43;;;;;;;;;;5135091;27;20225;-84
2023/03/28 12:43:15;;;;;;;3.70;3.03;;;;;;;;;;5135167;27;20192;-84
2023/03/28 12:45:46;;;;;;;10.77;4.87;;;;;;;;;;5136113;27;20356;-83
2023/03/28 12:48:16;;;;;;;6.60;4.43;;;;;;;;;;5137207;27;20216;-84
2023/03/28 12:50:47;;;;;;;6.67;3.90;;;;;;;;;;5137031;27;20300;-83
2023/03/28 12:53:17;;;;;;;11.50;5.87;;;;;;;;;;5135434;27;20199;-83
2023/03/28 12:55:47;;;;;;;7.80;5.27;;;;;;;;;;5135010;27;20258;-84
2023/03/28 12:58:23;;;;;;;8.90;7.00;;;;;;;;;;5135611;27;20197;-84
2023/03/28 13:01:03;;;;;;;10.33;5.90;;;;;;;;;;5131124;27;20206;-83
2023/03/28 13:03:37;;;;;;;5.13;3.77;;;;;;;;;;5116071;28;20228;-84
2023/03/28 13:06:14;;;;;;;10.23;7.00;;;;;;;;;;5116607;28;20217;-83
2023/03/28 13:08:49;;;;;;;10.40;7.83;;;;;;;;;;5116576;28;20212;-84
2023/03/28 13:11:25;;;;;;;8.87;6.37;;;;;;;;;;5116708;28;20200;-83
2023/03/28 13:13:57;;;;;;;8.10;5.97;;;;;;;;;;5116241;28;20201;-84
2023/03/28 13:16:27;;;;;;;8.40;5.20;;;;;;;;;;5116249;28;20241;-84
2023/03/28 13:19:06;;;;;;;6.63;4.63;;;;;;;;;;5115880;28;20197;-84
2023/03/28 13:21:42;;;;;;;6.57;4.67;;;;;;;;;;5115925;28;20254;-83
2023/03/28 13:24:28;;;;;;;6.67;4.60;;;;;;;;;;5110028;28;20304;-83
2023/03/28 13:26:59;;;;;;;7.03;4.23;;;;;;;;;;5113360;28;20210;-83
2023/03/28 13:29:46;;;;;;;4.73;3.60;;;;;;;;;;5100986;27;20229;-83
2023/03/28 13:32:15;;;;;;;6.73;4.50;;;;;;;;;;5101909;28;20202;-83
2023/03/28 13:34:48;;;;;;;7.00;4.47;;;;;;;;;;5102024;28;20206;-83
2023/03/28 13:37:21;;;;;;;7.23;3.97;;;;;;;;;;5115245;28;20249;-83
2023/03/28 13:39:55;;;;;;;5.00;3.43;;;;;;;;;;5114999;28;20196;-83
2023/03/28 13:42:28;;;;;;;7.53;4.53;;;;;;;;;;5116575;28;20216;-84
2023/03/28 13:44:58;;;;;;;7.13;4.53;;;;;;;;;;5110907;28;20213;-84
2023/03/28 13:47:31;;;;;;;7.17;4.10;;;;;;;;;;5102254;28;20199;-84
2023/03/28 13:50:01;;;;;;;5.80;3.63;;;;;;;;;;5107710;28;20242;-85
2023/03/28 13:52:31;;;;;;;6.43;3.57;;;;;;;;;;5103181;28;20410;-84
2023/03/28 13:55:21;;;;;;;10.00;4.27;;;;;;;;;;5100760;28;20210;-84
2023/03/28 13:57:50;;;;;;;5.23;3.20;;;;;;;;;;5106928;28;20205;-85
2023/03/28 14:00:20;;;;;;;5.10;3.40;;;;;;;;;;5099597;28;20220;-84
2023/03/28 14:02:50;;;;;;;6.00;3.50;;;;;;;;;;5092801;28;20302;-84
2023/03/28 14:05:20;;;;;;;5.73;3.13;;;;;;;;;;5097663;28;20225;-84
2023/03/28 14:07:49;;;;;;;6.03;3.80;;;;;;;;;;5102528;28;20200;-84
2023/03/28 14:10:28;;;;;;;5.33;3.83;;;;;;;;;;5099567;28;20220;-84
2023/03/28 14:12:59;;;;;;;2.67;2.23;;;;;;;;;;5097629;28;20204;-85
2023/03/28 14:15:30;;;;;;;4.00;2.77;;;;;;;;;;5095487;28;20206;-84
2023/03/28 14:18:00;;;;;;;4.73;4.03;;;;;;;;;;5097336;28;20241;-84
2023/03/28 14:20:29;;;;;;;4.00;2.37;;;;;;;;;;5097452;28;20204;-85
2023/03/28 14:22:58;;;;;;;6.10;3.40;;;;;;;;;;5109782;28;20201;-84
2023/03/28 14:25:30;;;;;;;4.80;3.70;;;;;;;;;;5101011;28;20317;-84
2023/03/28 14:28:06;;;;;;;6.97;3.60;;;;;;;;;;5120236;28;20207;-85
2023/03/28 14:30:39;;;;;;;4.97;3.20;;;;;;;;;;5100352;28;20196;-85
2023/03/28 14:33:18;;;;;;;5.93;3.13;;;;;;;;;;5092320;28;20201;-85
2023/03/28 14:35:56;;;;;;;4.40;3.80;;;;;;;;;;5092448;28;20207;-86
2023/03/28 14:38:28;;;;;;;7.43;3.27;;;;;;;;;;5092619;28;20195;-85
2023/03/28 14:41:04;;;;;;;2.83;2.53;;;;;;;;;;5092259;28;20288;-85
2023/03/28 14:43:33;;;;;;;5.50;3.00;;;;;;;;;;5092518;28;20291;-86
2023/03/28 14:46:04;;;;;;;4.93;2.93;;;;;;;;;;5092364;28;20266;-85
2023/03/28 14:48:34;;;;;;;8.83;4.10;;;;;;;;;;5091264;28;20194;-85
2023/03/28 14:51:04;;;;;;;6.30;3.13;;;;;;;;;;5092686;28;20304;-86
2023/03/28 14:53:36;;;;;;;3.13;2.70;;;;;;;;;;5091898;28;20612;-86
2023/03/28 14:56:09;;;;;;;7.00;3.90;;;;;;;;;;5092226;28;20197;-85
2023/03/28 14:58:38;;;;;;;6.23;3.67;;;;;;;;;;5092724;28;20241;-85
2023/03/28 15:01:07;;;;;;;4.87;3.30;;;;;;;;;;5093907;28;20234;-83
2023/03/28 15:03:38;;;;;;;1.80;1.70;;;;;;;;;;5093525;28;20220;-84
2023/03/28 15:06:08;;;;;;;9.23;4.40;;;;;;;;;;5094590;28;20226;-83
2023/03/28 15:08:37;;;;;;;7.17;4.33;;;;;;;;;;5095987;28;20206;-83
2023/03/28 15:11:08;;;;;;;8.30;3.50;;;;;;;;;;5095487;28;20198;-83
2023/03/28 15:13:38;;;;;;;7.03;4.00;;;;;;;;;;5095793;28;20237;-83